sensor_id;sensor_type;location;lat;lon;timestamp;pressure;altitude;pressure_sealevel;temperature;humidity
550;BME280;20066;48.764;9.176;2023-03-14T00:00:25;96584.81;;;11.12;86.87
550;BME280;20066;48.764;9.176;2023-03-14T00:02:53;96580.31;;;10.80;86.72
550;BME280;20066;48.764;9.176;2023-03-14T00:05:21;96580.88;;;10.88;86.86
550;BME280;20066;48.764;9.176;2023-03-14T00:07:49;96567.59;;;10.52;87.58
550;BME280;20066;48.764;9.176;2023-03-14T00:10:17;96599.13;;;10.80;85.79
550;BME280;20066;48.764;9.176;2023-03-14T00:12:45;96586.56;;;10.90;86.46
550;BME280;20066;48.764;9.176;2023-03-14T00:15:13;96579.25;;;10.91;86.74
550;BME280;20066;48.764;9.176;2023-03-14T00:17:44;96585.56;;;11.42;85.67
550;BME280;20066;48.764;9.176;2023-03-14T00:20:12;96580.66;;;11.24;83.34
550;BME280;20066;48.764;9.176;2023-03-14T00:22:41;96572.66;;;11.08;84.48
550;BME280;20066;48.764;9.176;2023-03-14T00:25:10;96547.38;;;10.76;86.47
550;BME280;20066;48.764;9.176;2023-03-14T00:27:38;96549.47;;;10.98;85.10
550;BME280;20066;48.764;9.176;2023-03-14T00:30:07;96546.09;;;11.22;83.45
550;BME280;20066;48.764;9.176;2023-03-14T00:32:36;96550.16;;;11.02;84.57
550;BME280;20066;48.764;9.176;2023-03-14T00:35:08;96564.34;;;11.02;83.78
550;BME280;20066;48.764;9.176;2023-03-14T00:37:36;96556.66;;;10.59;84.76
550;BME280;20066;48.764;9.176;2023-03-14T00:40:06;96568.50;;;11.19;82.66
550;BME280;20066;48.764;9.176;2023-03-14T00:42:34;96577.19;;;11.11;82.33
550;BME280;20066;48.764;9.176;2023-03-14T00:45:02;96580.78;;;11.33;81.41
550;BME280;20066;48.764;9.176;2023-03-14T00:47:31;96570.19;;;11.13;81.78
550;BME280;20066;48.764;9.176;2023-03-14T00:49:59;96558.91;;;11.18;82.23
550;BME280;20066;48.764;9.176;2023-03-14T00:52:29;96557.41;;;11.30;81.82
550;BME280;20066;48.764;9.176;2023-03-14T00:54:56;96566.47;;;11.36;81.64
550;BME280;20066;48.764;9.176;2023-03-14T00:57:24;96577.28;;;11.49;80.95
550;BME280;20066;48.764;9.176;2023-03-14T00:59:52;96580.88;;;11.71;78.82
550;BME280;20066;48.764;9.176;2023-03-14T01:02:20;96589.16;;;12.27;77.45
550;BME280;20066;48.764;9.176;2023-03-14T01:04:48;96596.75;;;11.40;79.81
550;BME280;20066;48.764;9.176;2023-03-14T01:07:16;96594.78;;;11.95;77.96
550;BME280;20066;48.764;9.176;2023-03-14T01:09:46;96597.03;;;11.30;79.60
550;BME280;20066;48.764;9.176;2023-03-14T01:12:13;96604.50;;;11.51;79.85
550;BME280;20066;48.764;9.176;2023-03-14T01:14:41;96604.69;;;12.23;78.32
550;BME280;20066;48.764;9.176;2023-03-14T01:17:09;96602.75;;;11.98;76.56
550;BME280;20066;48.764;9.176;2023-03-14T01:19:37;96593.34;;;12.41;75.74
550;BME280;20066;48.764;9.176;2023-03-14T01:22:05;96590.59;;;12.66;73.64
550;BME280;20066;48.764;9.176;2023-03-14T01:24:33;96587.81;;;12.45;73.71
550;BME280;20066;48.764;9.176;2023-03-14T01:27:02;96567.59;;;12.74;73.93
550;BME280;20066;48.764;9.176;2023-03-14T01:29:30;96559.53;;;13.18;71.12
550;BME280;20066;48.764;9.176;2023-03-14T01:31:58;96552.28;;;12.24;74.62
550;BME280;20066;48.764;9.176;2023-03-14T01:34:26;96547.53;;;12.16;75.66
550;BME280;20066;48.764;9.176;2023-03-14T01:36:54;96538.72;;;12.03;74.75
550;BME280;20066;48.764;9.176;2023-03-14T01:39:22;96542.84;;;12.76;72.47
550;BME280;20066;48.764;9.176;2023-03-14T01:41:50;96525.28;;;11.65;76.59
550;BME280;20066;48.764;9.176;2023-03-14T01:44:19;96513.13;;;11.73;75.55
550;BME280;20066;48.764;9.176;2023-03-14T01:46:47;96515.84;;;11.18;77.65
550;BME280;20066;48.764;9.176;2023-03-14T01:49:20;96495.84;;;11.45;77.14
550;BME280;20066;48.764;9.176;2023-03-14T01:51:54;96487.66;;;11.48;76.37
550;BME280;20066;48.764;9.176;2023-03-14T01:54:25;96499.38;;;11.29;78.05
550;BME280;20066;48.764;9.176;2023-03-14T01:56:57;96490.78;;;11.34;76.82
550;BME280;20066;48.764;9.176;2023-03-14T01:59:28;96490.47;;;11.32;76.02
550;BME280;20066;48.764;9.176;2023-03-14T02:01:59;96490.75;;;12.10;74.16
550;BME280;20066;48.764;9.176;2023-03-14T02:04:30;96494.78;;;11.55;73.96
550;BME280;20066;48.764;9.176;2023-03-14T02:07:04;96492.16;;;12.02;72.66
550;BME280;20066;48.764;9.176;2023-03-14T02:09:33;96496.28;;;11.94;72.51
550;BME280;20066;48.764;9.176;2023-03-14T02:12:01;96492.75;;;11.72;74.64
550;BME280;20066;48.764;9.176;2023-03-14T02:14:33;96499.19;;;11.87;74.29
550;BME280;20066;48.764;9.176;2023-03-14T02:17:01;96498.41;;;12.46;72.25
550;BME280;20066;48.764;9.176;2023-03-14T02:19:42;96494.97;;;11.98;72.92
550;BME280;20066;48.764;9.176;2023-03-14T02:22:15;96498.69;;;12.26;72.94
550;BME280;20066;48.764;9.176;2023-03-14T02:24:48;96493.25;;;12.39;72.17
550;BME280;20066;48.764;9.176;2023-03-14T02:27:20;96482.16;;;12.03;73.55
550;BME280;20066;48.764;9.176;2023-03-14T02:29:51;96465.66;;;10.99;77.02
550;BME280;20066;48.764;9.176;2023-03-14T02:32:22;96468.81;;;11.36;76.81
550;BME280;20066;48.764;9.176;2023-03-14T02:34:54;96463.00;;;11.50;77.81
550;BME280;20066;48.764;9.176;2023-03-14T02:37:28;96454.16;;;10.99;77.37
550;BME280;20066;48.764;9.176;2023-03-14T02:39:58;96457.38;;;11.06;78.76
550;BME280;20066;48.764;9.176;2023-03-14T02:42:27;96461.34;;;10.89;79.51
550;BME280;20066;48.764;9.176;2023-03-14T02:45:01;96465.25;;;11.01;78.43
550;BME280;20066;48.764;9.176;2023-03-14T02:47:52;96443.78;;;10.72;79.49
550;BME280;20066;48.764;9.176;2023-03-14T02:50:24;96438.97;;;11.05;78.74
550;BME280;20066;48.764;9.176;2023-03-14T02:52:54;96450.13;;;10.65;79.69
550;BME280;20066;48.764;9.176;2023-03-14T02:55:23;96424.09;;;10.75;79.89
550;BME280;20066;48.764;9.176;2023-03-14T02:57:54;96415.72;;;10.98;78.95
550;BME280;20066;48.764;9.176;2023-03-14T03:00:22;96426.59;;;10.95;77.05
550;BME280;20066;48.764;9.176;2023-03-14T03:02:50;96421.44;;;11.00;77.43
550;BME280;20066;48.764;9.176;2023-03-14T03:05:18;96405.25;;;10.75;77.30
550;BME280;20066;48.764;9.176;2023-03-14T03:07:45;96403.66;;;11.53;75.22
550;BME280;20066;48.764;9.176;2023-03-14T03:10:13;96416.06;;;11.13;75.54
550;BME280;20066;48.764;9.176;2023-03-14T03:12:41;96408.97;;;11.19;74.83
550;BME280;20066;48.764;9.176;2023-03-14T03:15:11;96401.53;;;10.85;75.20
550;BME280;20066;48.764;9.176;2023-03-14T03:17:39;96380.03;;;11.10;75.13
550;BME280;20066;48.764;9.176;2023-03-14T03:20:08;96364.09;;;10.91;74.99
550;BME280;20066;48.764;9.176;2023-03-14T03:22:37;96367.84;;;10.93;75.27
550;BME280;20066;48.764;9.176;2023-03-14T03:25:06;96374.09;;;11.15;73.12
550;BME280;20066;48.764;9.176;2023-03-14T03:27:35;96366.97;;;11.34;73.05
550;BME280;20066;48.764;9.176;2023-03-14T03:30:05;96365.72;;;10.88;74.67
550;BME280;20066;48.764;9.176;2023-03-14T03:32:35;96368.53;;;10.43;74.40
550;BME280;20066;48.764;9.176;2023-03-14T03:35:03;96349.47;;;10.92;72.08
550;BME280;20066;48.764;9.176;2023-03-14T03:37:32;96353.22;;;10.81;72.49
550;BME280;20066;48.764;9.176;2023-03-14T03:40:01;96363.78;;;10.89;71.11
550;BME280;20066;48.764;9.176;2023-03-14T03:42:32;96348.38;;;11.14;70.16
550;BME280;20066;48.764;9.176;2023-03-14T03:45:00;96335.69;;;10.77;70.61
550;BME280;20066;48.764;9.176;2023-03-14T03:47:30;96346.09;;;10.75;70.77
550;BME280;20066;48.764;9.176;2023-03-14T03:49:59;96357.88;;;10.81;70.54
550;BME280;20066;48.764;9.176;2023-03-14T03:52:27;96350.44;;;11.10;68.54
550;BME280;20066;48.764;9.176;2023-03-14T03:54:54;96334.25;;;11.23;68.65
550;BME280;20066;48.764;9.176;2023-03-14T03:57:22;96333.72;;;11.15;68.22
550;BME280;20066;48.764;9.176;2023-03-14T03:59:50;96344.06;;;10.92;68.66
550;BME280;20066;48.764;9.176;2023-03-14T04:02:18;96345.06;;;10.85;67.62
550;BME280;20066;48.764;9.176;2023-03-14T04:04:46;96338.38;;;10.77;68.53
550;BME280;20066;48.764;9.176;2023-03-14T04:07:15;96330.34;;;11.49;65.91
550;BME280;20066;48.764;9.176;2023-03-14T04:09:43;96329.97;;;11.13;66.50
550;BME280;20066;48.764;9.176;2023-03-14T04:12:11;96334.59;;;11.12;66.66
550;BME280;20066;48.764;9.176;2023-03-14T04:14:39;96327.50;;;10.68;67.88
550;BME280;20066;48.764;9.176;2023-03-14T04:17:07;96327.84;;;10.57;68.29
550;BME280;20066;48.764;9.176;2023-03-14T04:19:35;96323.50;;;10.34;68.80
550;BME280;20066;48.764;9.176;2023-03-14T04:22:03;96343.31;;;10.91;66.46
550;BME280;20066;48.764;9.176;2023-03-14T04:24:33;96336.66;;;10.96;65.93
550;BME280;20066;48.764;9.176;2023-03-14T04:27:01;96324.94;;;10.64;66.75
550;BME280;20066;48.764;9.176;2023-03-14T04:29:29;96316.28;;;11.20;65.25
550;BME280;20066;48.764;9.176;2023-03-14T04:31:57;96323.53;;;10.85;66.33
550;BME280;20066;48.764;9.176;2023-03-14T04:34:24;96331.59;;;10.72;67.20
550;BME280;20066;48.764;9.176;2023-03-14T04:36:52;96322.97;;;10.27;67.59
550;BME280;20066;48.764;9.176;2023-03-14T04:39:20;96316.53;;;11.00;66.26
550;BME280;20066;48.764;9.176;2023-03-14T04:41:50;96317.16;;;10.41;68.11
550;BME280;20066;48.764;9.176;2023-03-14T04:44:18;96303.84;;;10.75;66.89
550;BME280;20066;48.764;9.176;2023-03-14T04:46:45;96307.59;;;10.91;66.97
550;BME280;20066;48.764;9.176;2023-03-14T04:49:13;96303.81;;;10.50;67.10
550;BME280;20066;48.764;9.176;2023-03-14T04:51:41;96301.97;;;11.23;65.44
550;BME280;20066;48.764;9.176;2023-03-14T04:54:09;96290.59;;;10.94;65.05
550;BME280;20066;48.764;9.176;2023-03-14T04:56:37;96295.59;;;11.30;64.36
550;BME280;20066;48.764;9.176;2023-03-14T04:59:06;96294.81;;;10.69;66.32
550;BME280;20066;48.764;9.176;2023-03-14T05:01:34;96288.91;;;10.62;67.57
550;BME280;20066;48.764;9.176;2023-03-14T05:04:03;96295.22;;;11.06;64.81
550;BME280;20066;48.764;9.176;2023-03-14T05:06:31;96287.72;;;10.63;67.08
550;BME280;20066;48.764;9.176;2023-03-14T05:09:03;96280.06;;;10.74;66.95
550;BME280;20066;48.764;9.176;2023-03-14T05:11:31;96279.34;;;11.33;64.77
550;BME280;20066;48.764;9.176;2023-03-14T05:14:00;96283.41;;;10.40;67.03
550;BME280;20066;48.764;9.176;2023-03-14T05:16:29;96276.31;;;10.33;68.16
550;BME280;20066;48.764;9.176;2023-03-14T05:18:57;96278.13;;;10.74;67.55
550;BME280;20066;48.764;9.176;2023-03-14T05:21:28;96283.47;;;10.24;68.08
550;BME280;20066;48.764;9.176;2023-03-14T05:23:55;96280.19;;;10.70;66.64
550;BME280;20066;48.764;9.176;2023-03-14T05:26:23;96286.31;;;10.33;67.19
550;BME280;20066;48.764;9.176;2023-03-14T05:28:52;96284.16;;;10.66;66.11
550;BME280;20066;48.764;9.176;2023-03-14T05:31:20;96274.91;;;10.79;64.90
550;BME280;20066;48.764;9.176;2023-03-14T05:33:50;96275.88;;;10.86;65.27
550;BME280;20066;48.764;9.176;2023-03-14T05:36:17;96281.66;;;10.97;64.68
550;BME280;20066;48.764;9.176;2023-03-14T05:38:46;96268.34;;;10.93;65.17
550;BME280;20066;48.764;9.176;2023-03-14T05:41:13;96259.31;;;10.87;65.81
550;BME280;20066;48.764;9.176;2023-03-14T05:43:41;96259.97;;;10.40;66.59
550;BME280;20066;48.764;9.176;2023-03-14T05:46:09;96251.69;;;10.60;66.56
550;BME280;20066;48.764;9.176;2023-03-14T05:48:37;96258.03;;;10.41;66.15
550;BME280;20066;48.764;9.176;2023-03-14T05:51:06;96250.69;;;10.16;67.86
550;BME280;20066;48.764;9.176;2023-03-14T05:53:34;96262.03;;;10.49;65.94
550;BME280;20066;48.764;9.176;2023-03-14T05:56:02;96256.19;;;10.51;66.94
550;BME280;20066;48.764;9.176;2023-03-14T05:58:30;96243.69;;;10.06;67.61
550;BME280;20066;48.764;9.176;2023-03-14T06:01:01;96247.19;;;10.44;66.45
550;BME280;20066;48.764;9.176;2023-03-14T06:03:29;96249.59;;;10.14;67.03
550;BME280;20066;48.764;9.176;2023-03-14T06:05:58;96245.25;;;10.70;65.72
550;BME280;20066;48.764;9.176;2023-03-14T06:08:27;96250.06;;;10.75;64.97
550;BME280;20066;48.764;9.176;2023-03-14T06:10:56;96259.09;;;10.31;66.58
550;BME280;20066;48.764;9.176;2023-03-14T06:13:24;96256.84;;;10.29;67.40
550;BME280;20066;48.764;9.176;2023-03-14T06:15:52;96264.25;;;10.76;65.24
550;BME280;20066;48.764;9.176;2023-03-14T06:18:20;96246.75;;;10.59;65.81
550;BME280;20066;48.764;9.176;2023-03-14T06:20:48;96245.63;;;10.94;65.47
550;BME280;20066;48.764;9.176;2023-03-14T06:23:16;96255.06;;;11.46;63.59
550;BME280;20066;48.764;9.176;2023-03-14T06:25:45;96252.53;;;10.82;64.91
550;BME280;20066;48.764;9.176;2023-03-14T06:28:13;96255.34;;;10.66;64.83
550;BME280;20066;48.764;9.176;2023-03-14T06:30:42;96254.28;;;10.64;64.71
550;BME280;20066;48.764;9.176;2023-03-14T06:33:10;96256.94;;;11.36;62.42
550;BME280;20066;48.764;9.176;2023-03-14T06:35:38;96258.06;;;11.13;63.67
550;BME280;20066;48.764;9.176;2023-03-14T06:38:06;96255.97;;;11.30;62.11
550;BME280;20066;48.764;9.176;2023-03-14T06:40:34;96259.31;;;11.90;60.15
550;BME280;20066;48.764;9.176;2023-03-14T06:43:04;96255.66;;;11.63;61.46
550;BME280;20066;48.764;9.176;2023-03-14T06:45:32;96249.28;;;11.69;60.78
550;BME280;20066;48.764;9.176;2023-03-14T06:48:00;96247.28;;;10.66;64.40
550;BME280;20066;48.764;9.176;2023-03-14T06:50:28;96250.13;;;10.97;62.57
550;BME280;20066;48.764;9.176;2023-03-14T06:52:56;96256.06;;;11.39;61.40
550;BME280;20066;48.764;9.176;2023-03-14T06:55:26;96260.72;;;11.73;60.74
550;BME280;20066;48.764;9.176;2023-03-14T06:57:54;96254.94;;;11.84;59.66
550;BME280;20066;48.764;9.176;2023-03-14T07:00:24;96260.78;;;11.48;60.11
550;BME280;20066;48.764;9.176;2023-03-14T07:02:52;96259.94;;;11.73;59.86
550;BME280;20066;48.764;9.176;2023-03-14T07:05:20;96260.31;;;12.36;58.52
550;BME280;20066;48.764;9.176;2023-03-14T07:07:48;96257.56;;;11.75;59.33
550;BME280;20066;48.764;9.176;2023-03-14T07:10:19;96251.81;;;11.51;60.93
550;BME280;20066;48.764;9.176;2023-03-14T07:12:47;96268.59;;;11.89;58.70
550;BME280;20066;48.764;9.176;2023-03-14T07:15:15;96275.69;;;11.61;60.50
550;BME280;20066;48.764;9.176;2023-03-14T07:17:46;96266.41;;;11.41;60.50
550;BME280;20066;48.764;9.176;2023-03-14T07:20:16;96272.28;;;11.48;60.06
550;BME280;20066;48.764;9.176;2023-03-14T07:22:47;96278.84;;;11.82;58.33
550;BME280;20066;48.764;9.176;2023-03-14T07:25:16;96267.03;;;11.45;59.22
550;BME280;20066;48.764;9.176;2023-03-14T07:27:46;96278.31;;;11.87;59.52
550;BME280;20066;48.764;9.176;2023-03-14T07:30:14;96272.16;;;13.19;55.99
550;BME280;20066;48.764;9.176;2023-03-14T07:32:44;96279.25;;;11.93;58.75
550;BME280;20066;48.764;9.176;2023-03-14T07:35:28;96272.22;;;11.95;59.16
550;BME280;20066;48.764;9.176;2023-03-14T07:37:56;96271.28;;;12.73;57.18
550;BME280;20066;48.764;9.176;2023-03-14T07:40:24;96282.16;;;13.00;55.67
550;BME280;20066;48.764;9.176;2023-03-14T07:42:52;96286.72;;;12.42;56.44
550;BME280;20066;48.764;9.176;2023-03-14T07:45:22;96288.75;;;11.63;57.89
550;BME280;20066;48.764;9.176;2023-03-14T07:47:50;96289.31;;;12.02;58.23
550;BME280;20066;48.764;9.176;2023-03-14T07:50:19;96287.44;;;12.73;56.99
550;BME280;20066;48.764;9.176;2023-03-14T07:52:49;96289.50;;;13.00;55.08
550;BME280;20066;48.764;9.176;2023-03-14T07:55:17;96290.16;;;13.13;54.91
550;BME280;20066;48.764;9.176;2023-03-14T07:57:46;96298.59;;;12.53;56.83
550;BME280;20066;48.764;9.176;2023-03-14T08:00:14;96292.94;;;12.60;56.08
550;BME280;20066;48.764;9.176;2023-03-14T08:02:43;96284.47;;;12.40;57.23
550;BME280;20066;48.764;9.176;2023-03-14T08:05:11;96270.63;;;12.69;55.56
550;BME280;20066;48.764;9.176;2023-03-14T08:07:39;96283.75;;;12.18;57.06
550;BME280;20066;48.764;9.176;2023-03-14T08:10:10;96273.03;;;13.16;54.48
550;BME280;20066;48.764;9.176;2023-03-14T08:12:39;96286.59;;;13.98;52.87
550;BME280;20066;48.764;9.176;2023-03-14T08:15:08;96274.78;;;12.92;54.66
550;BME280;20066;48.764;9.176;2023-03-14T08:17:36;96300.19;;;12.42;56.58
550;BME280;20066;48.764;9.176;2023-03-14T08:20:05;96290.81;;;13.63;53.43
550;BME280;20066;48.764;9.176;2023-03-14T08:22:35;96281.94;;;13.89;51.72
550;BME280;20066;48.764;9.176;2023-03-14T08:25:03;96279.97;;;14.26;50.36
550;BME280;20066;48.764;9.176;2023-03-14T08:27:33;96273.66;;;14.20;50.66
550;BME280;20066;48.764;9.176;2023-03-14T08:30:01;96271.31;;;15.21;48.35
550;BME280;20066;48.764;9.176;2023-03-14T08:32:30;96272.22;;;16.83;44.57
550;BME280;20066;48.764;9.176;2023-03-14T08:34:58;96265.09;;;17.21;42.85
550;BME280;20066;48.764;9.176;2023-03-14T08:37:26;96270.09;;;15.22;46.34
550;BME280;20066;48.764;9.176;2023-03-14T08:39:54;96276.41;;;17.54;42.23
550;BME280;20066;48.764;9.176;2023-03-14T08:42:22;96262.53;;;15.50;46.07
550;BME280;20066;48.764;9.176;2023-03-14T08:44:52;96297.31;;;15.52;46.06
550;BME280;20066;48.764;9.176;2023-03-14T08:47:20;96321.72;;;15.19;46.72
550;BME280;20066;48.764;9.176;2023-03-14T08:49:48;96295.56;;;16.16;44.21
550;BME280;20066;48.764;9.176;2023-03-14T08:52:16;96271.50;;;17.38;41.38
550;BME280;20066;48.764;9.176;2023-03-14T08:54:44;96292.34;;;17.26;42.21
550;BME280;20066;48.764;9.176;2023-03-14T08:57:12;96301.81;;;15.69;45.07
550;BME280;20066;48.764;9.176;2023-03-14T08:59:40;96312.03;;;15.74;44.70
550;BME280;20066;48.764;9.176;2023-03-14T09:02:10;96308.34;;;17.59;41.81
550;BME280;20066;48.764;9.176;2023-03-14T09:04:39;96313.81;;;14.64;47.18
550;BME280;20066;48.764;9.176;2023-03-14T09:07:07;96317.19;;;14.41;48.83
550;BME280;20066;48.764;9.176;2023-03-14T09:09:35;96344.91;;;15.20;47.60
550;BME280;20066;48.764;9.176;2023-03-14T09:12:03;96323.22;;;14.17;50.03
550;BME280;20066;48.764;9.176;2023-03-14T09:14:31;96337.19;;;13.70;51.69
550;BME280;20066;48.764;9.176;2023-03-14T09:16:59;96329.16;;;14.67;50.01
550;BME280;20066;48.764;9.176;2023-03-14T09:19:29;96346.44;;;14.60;50.58
550;BME280;20066;48.764;9.176;2023-03-14T09:21:57;96339.22;;;15.41;49.34
550;BME280;20066;48.764;9.176;2023-03-14T09:24:25;96345.28;;;14.43;51.70
550;BME280;20066;48.764;9.176;2023-03-14T09:26:54;96345.03;;;15.73;48.49
550;BME280;20066;48.764;9.176;2023-03-14T09:29:22;96339.56;;;15.97;47.89
550;BME280;20066;48.764;9.176;2023-03-14T09:31:50;96351.16;;;16.36;46.36
550;BME280;20066;48.764;9.176;2023-03-14T09:34:18;96358.91;;;16.13;47.16
550;BME280;20066;48.764;9.176;2023-03-14T09:36:48;96356.88;;;14.35;50.79
550;BME280;20066;48.764;9.176;2023-03-14T09:39:16;96364.44;;;14.82;51.20
550;BME280;20066;48.764;9.176;2023-03-14T09:41:46;96351.59;;;13.95;52.22
550;BME280;20066;48.764;9.176;2023-03-14T09:44:19;96366.31;;;14.03;52.82
550;BME280;20066;48.764;9.176;2023-03-14T09:46:51;96355.06;;;14.22;52.15
550;BME280;20066;48.764;9.176;2023-03-14T09:49:21;96367.97;;;13.91;52.42
550;BME280;20066;48.764;9.176;2023-03-14T09:51:54;96367.56;;;14.11;51.91
550;BME280;20066;48.764;9.176;2023-03-14T09:54:31;96365.75;;;13.22;53.76
550;BME280;20066;48.764;9.176;2023-03-14T09:57:02;96364.19;;;12.72;54.20
550;BME280;20066;48.764;9.176;2023-03-14T09:59:31;96373.88;;;12.91;54.22
550;BME280;20066;48.764;9.176;2023-03-14T10:02:11;96358.63;;;13.06;53.75
550;BME280;20066;48.764;9.176;2023-03-14T10:04:41;96344.97;;;13.50;53.05
550;BME280;20066;48.764;9.176;2023-03-14T10:07:14;96355.50;;;13.94;51.63
550;BME280;20066;48.764;9.176;2023-03-14T10:09:44;96339.13;;;14.43;50.02
550;BME280;20066;48.764;9.176;2023-03-14T10:12:15;96345.19;;;14.80;49.67
550;BME280;20066;48.764;9.176;2023-03-14T10:14:49;96330.00;;;17.33;43.71
550;BME280;20066;48.764;9.176;2023-03-14T10:17:18;96335.56;;;16.45;45.47
550;BME280;20066;48.764;9.176;2023-03-14T10:19:54;96330.56;;;17.98;42.40
550;BME280;20066;48.764;9.176;2023-03-14T10:22:39;96330.97;;;17.51;42.81
550;BME280;20066;48.764;9.176;2023-03-14T10:25:26;96332.09;;;16.45;44.19
550;BME280;20066;48.764;9.176;2023-03-14T10:27:54;96347.34;;;15.41;47.14
550;BME280;20066;48.764;9.176;2023-03-14T10:30:39;96341.84;;;14.85;47.84
550;BME280;20066;48.764;9.176;2023-03-14T10:33:20;96335.56;;;14.27;49.48
550;BME280;20066;48.764;9.176;2023-03-14T10:35:53;96343.66;;;13.05;52.26
550;BME280;20066;48.764;9.176;2023-03-14T10:38:27;96327.44;;;14.09;50.28
550;BME280;20066;48.764;9.176;2023-03-14T10:40:56;96322.47;;;13.62;51.47
550;BME280;20066;48.764;9.176;2023-03-14T10:43:26;96340.78;;;13.58;51.63
550;BME280;20066;48.764;9.176;2023-03-14T10:45:57;96335.38;;;14.40;49.87
550;BME280;20066;48.764;9.176;2023-03-14T10:48:31;96345.88;;;14.38;50.20
550;BME280;20066;48.764;9.176;2023-03-14T10:51:04;96329.34;;;13.36;51.80
550;BME280;20066;48.764;9.176;2023-03-14T10:53:39;96347.84;;;13.65;51.92
550;BME280;20066;48.764;9.176;2023-03-14T10:56:11;96346.19;;;13.67;52.02
550;BME280;20066;48.764;9.176;2023-03-14T10:58:42;96341.13;;;14.06;51.41
550;BME280;20066;48.764;9.176;2023-03-14T11:01:26;96350.06;;;14.99;49.88
550;BME280;20066;48.764;9.176;2023-03-14T11:04:00;96368.31;;;14.20;51.25
550;BME280;20066;48.764;9.176;2023-03-14T11:06:36;96351.72;;;13.36;53.63
550;BME280;20066;48.764;9.176;2023-03-14T11:09:13;96357.75;;;13.77;54.19
550;BME280;20066;48.764;9.176;2023-03-14T11:11:46;96360.81;;;13.30;54.89
550;BME280;20066;48.764;9.176;2023-03-14T11:14:21;96355.97;;;13.92;54.08
550;BME280;20066;48.764;9.176;2023-03-14T11:16:57;96384.56;;;13.53;54.56
550;BME280;20066;48.764;9.176;2023-03-14T11:19:49;96394.47;;;12.98;56.00
550;BME280;20066;48.764;9.176;2023-03-14T11:22:27;96390.31;;;12.84;57.81
550;BME280;20066;48.764;9.176;2023-03-14T11:25:12;96389.84;;;12.11;60.87
550;BME280;20066;48.764;9.176;2023-03-14T11:27:45;96382.41;;;12.59;60.46
550;BME280;20066;48.764;9.176;2023-03-14T11:30:18;96390.22;;;12.22;61.34
550;BME280;20066;48.764;9.176;2023-03-14T11:32:52;96381.59;;;12.27;62.10
550;BME280;20066;48.764;9.176;2023-03-14T11:35:27;96382.84;;;12.35;62.55
550;BME280;20066;48.764;9.176;2023-03-14T11:38:05;96390.22;;;12.22;62.22
550;BME280;20066;48.764;9.176;2023-03-14T11:40:40;96374.47;;;12.21;62.14
550;BME280;20066;48.764;9.176;2023-03-14T11:43:12;96385.94;;;12.77;60.28
550;BME280;20066;48.764;9.176;2023-03-14T11:45:42;96389.44;;;12.87;59.93
550;BME280;20066;48.764;9.176;2023-03-14T11:48:17;96403.25;;;13.20;58.80
550;BME280;20066;48.764;9.176;2023-03-14T11:50:51;96401.13;;;13.15;59.71
550;BME280;20066;48.764;9.176;2023-03-14T11:53:34;96403.53;;;13.22;60.65
550;BME280;20066;48.764;9.176;2023-03-14T11:56:13;96406.66;;;12.59;60.78
550;BME280;20066;48.764;9.176;2023-03-14T11:58:51;96403.00;;;12.09;62.61
550;BME280;20066;48.764;9.176;2023-03-14T12:01:27;96422.13;;;12.67;62.10
550;BME280;20066;48.764;9.176;2023-03-14T12:04:05;96413.91;;;12.06;62.59
550;BME280;20066;48.764;9.176;2023-03-14T12:07:17;96433.94;;;12.61;61.43
550;BME280;20066;48.764;9.176;2023-03-14T12:09:49;96443.34;;;12.78;59.81
550;BME280;20066;48.764;9.176;2023-03-14T12:12:23;96457.34;;;12.64;61.36
550;BME280;20066;48.764;9.176;2023-03-14T12:14:54;96459.97;;;12.55;61.87
550;BME280;20066;48.764;9.176;2023-03-14T12:17:26;96481.34;;;12.27;62.26
550;BME280;20066;48.764;9.176;2023-03-14T12:20:15;96475.81;;;12.31;64.14
550;BME280;20066;48.764;9.176;2023-03-14T12:22:44;96470.72;;;11.98;64.12
550;BME280;20066;48.764;9.176;2023-03-14T12:25:16;96499.41;;;12.96;62.53
550;BME280;20066;48.764;9.176;2023-03-14T12:27:49;96523.81;;;13.45;58.76
550;BME280;20066;48.764;9.176;2023-03-14T12:30:32;96535.19;;;13.40;55.57
550;BME280;20066;48.764;9.176;2023-03-14T12:33:30;96535.38;;;14.35;51.26
550;BME280;20066;48.764;9.176;2023-03-14T12:36:18;96537.31;;;15.43;50.86
550;BME280;20066;48.764;9.176;2023-03-14T12:39:24;96564.41;;;15.43;48.47
550;BME280;20066;48.764;9.176;2023-03-14T12:42:01;96559.75;;;14.44;49.32
550;BME280;20066;48.764;9.176;2023-03-14T12:44:44;96593.44;;;13.72;49.57
550;BME280;20066;48.764;9.176;2023-03-14T12:47:45;96583.63;;;14.36;45.91
550;BME280;20066;48.764;9.176;2023-03-14T12:50:19;96585.75;;;14.68;44.66
550;BME280;20066;48.764;9.176;2023-03-14T12:55:46;96612.19;;;14.46;42.81
550;BME280;20066;48.764;9.176;2023-03-14T12:58:19;96623.31;;;13.46;43.16
550;BME280;20066;48.764;9.176;2023-03-14T13:00:55;96654.88;;;12.68;43.94
550;BME280;20066;48.764;9.176;2023-03-14T13:03:26;96666.84;;;12.67;43.94
550;BME280;20066;48.764;9.176;2023-03-14T13:06:04;96670.47;;;12.98;43.47
550;BME280;20066;48.764;9.176;2023-03-14T13:08:35;96675.75;;;12.42;43.30
550;BME280;20066;48.764;9.176;2023-03-14T13:11:08;96697.72;;;12.79;42.78
550;BME280;20066;48.764;9.176;2023-03-14T13:13:44;96699.31;;;12.00;43.29
550;BME280;20066;48.764;9.176;2023-03-14T13:16:18;96710.34;;;12.94;41.52
550;BME280;20066;48.764;9.176;2023-03-14T13:18:47;96739.09;;;11.67;42.14
550;BME280;20066;48.764;9.176;2023-03-14T13:21:21;96738.81;;;12.45;41.68
550;BME280;20066;48.764;9.176;2023-03-14T13:23:58;96734.84;;;12.62;40.63
550;BME280;20066;48.764;9.176;2023-03-14T13:26:34;96731.41;;;12.74;40.73
550;BME280;20066;48.764;9.176;2023-03-14T13:29:09;96750.53;;;13.27;39.61
550;BME280;20066;48.764;9.176;2023-03-14T13:31:45;96766.59;;;13.30;39.38
550;BME280;20066;48.764;9.176;2023-03-14T13:34:14;96775.34;;;13.69;39.05
550;BME280;20066;48.764;9.176;2023-03-14T13:36:42;96773.78;;;12.86;39.36
550;BME280;20066;48.764;9.176;2023-03-14T13:39:13;96791.72;;;12.93;39.26
550;BME280;20066;48.764;9.176;2023-03-14T13:41:45;96796.75;;;12.40;40.15
550;BME280;20066;48.764;9.176;2023-03-14T13:44:21;96823.56;;;12.72;39.57